Terminal Aerodrome Forecast
Issued by NWS

Home | Current Version | Previous Version | Text Only | Print | Product List | Glossary On
Versions: 1 2 3 4 5 6 7 8 9 10 11 12 13 14 15 16
000
FTUS43 KBIS 232300
TAFJMS
TAF
KJMS 232337Z 2400/2424 16012KT P6SM OVC016
     FM240400 16008KT P6SM OVC010
     FM241100 19008KT P6SM VCFG SCT005
     FM241400 20007KT P6SM FEW250=

USA.gov is the U.S. government's official web portal to all federal, state and local government web resources and services.